Time;durP1;ratioP1;P1;durP2;ratioP2;P2;SDS_P1;SDS_P2;PMS_P1;PMS_P2;Temp;Humidity;BMP_temperature;BMP_pressure;BME280_temperature;BME280_humidity;BME280_pressure;Samples;Min_cycle;Max_cycle;Signal;HPM_P1;HPM_P2
2022/09/13 00:00:52;;;;;;;10.93;3.10;;;;;;;;;;4951692;28;20058;-66
2022/09/13 00:03:28;;;;;;;14.13;3.22;;;;;;;;;;4944372;28;20059;-66
2022/09/13 00:05:54;;;;;;;14.20;3.53;;;;;;;;;;4947185;28;20047;-66
2022/09/13 00:08:20;;;;;;;11.15;3.20;;;;;;;;;;4951288;28;20077;-67
2022/09/13 00:10:47;;;;;;;13.82;3.15;;;;;;;;;;4944474;28;20569;-65
2022/09/13 00:13:14;;;;;;;11.00;3.20;;;;;;;;;;4948346;28;20139;-67
2022/09/13 00:15:46;;;;;;;11.80;3.05;;;;;;;;;;4938503;28;20557;-65
2022/09/13 00:18:13;;;;;;;8.68;2.90;;;;;;;;;;4944186;28;20070;-67
2022/09/13 00:20:39;;;;;;;10.57;3.10;;;;;;;;;;4947693;28;20043;-67
2022/09/13 00:23:05;;;;;;;13.65;3.30;;;;;;;;;;4955091;28;20481;-66
2022/09/13 00:25:32;;;;;;;11.80;3.17;;;;;;;;;;4941781;28;20051;-65
2022/09/13 00:27:58;;;;;;;9.40;3.00;;;;;;;;;;4961791;28;20556;-64
2022/09/13 00:30:23;;;;;;;15.48;3.35;;;;;;;;;;4951426;28;20134;-65
2022/09/13 00:32:49;;;;;;;8.93;3.03;;;;;;;;;;4952993;28;20047;-64
2022/09/13 00:35:15;;;;;;;9.65;3.17;;;;;;;;;;4950853;28;20074;-66
2022/09/13 00:37:41;;;;;;;11.10;2.83;;;;;;;;;;4953092;28;20047;-64
2022/09/13 00:40:07;;;;;;;12.65;3.33;;;;;;;;;;4950656;28;20059;-65
2022/09/13 00:42:33;;;;;;;9.20;2.70;;;;;;;;;;4957205;28;20493;-63
2022/09/13 00:45:13;;;;;;;11.32;2.90;;;;;;;;;;4951492;28;20043;-65
2022/09/13 00:47:44;;;;;;;9.40;2.53;;;;;;;;;;4950215;28;20505;-67
2022/09/13 00:50:31;;;;;;;12.38;2.90;;;;;;;;;;4949648;28;20065;-68
2022/09/13 00:53:02;;;;;;;14.13;2.40;;;;;;;;;;4952555;28;20044;-65
2022/09/13 00:55:30;;;;;;;14.98;2.97;;;;;;;;;;4952088;28;20054;-66
2022/09/13 00:58:01;;;;;;;9.07;2.50;;;;;;;;;;4953183;28;20039;-65
2022/09/13 01:00:27;;;;;;;13.07;2.58;;;;;;;;;;4955830;28;20082;-65
2022/09/13 01:02:58;;;;;;;9.77;2.20;;;;;;;;;;4957596;28;20134;-63
2022/09/13 01:05:30;;;;;;;11.65;2.60;;;;;;;;;;4952699;28;20047;-66
2022/09/13 01:07:58;;;;;;;11.13;2.72;;;;;;;;;;4947990;28;20047;-70
2022/09/13 01:10:26;;;;;;;11.38;2.80;;;;;;;;;;4950862;28;20051;-63
2022/09/13 01:13:13;;;;;;;10.65;3.00;;;;;;;;;;4953248;28;20166;-67
2022/09/13 01:15:42;;;;;;;9.88;2.67;;;;;;;;;;4952442;28;20059;-66
2022/09/13 01:18:10;;;;;;;8.52;2.88;;;;;;;;;;4947535;28;20058;-71
2022/09/13 01:21:02;;;;;;;9.07;2.65;;;;;;;;;;4951642;28;20481;-68
2022/09/13 01:23:34;;;;;;;9.10;2.47;;;;;;;;;;4954595;28;20062;-66
2022/09/13 01:26:24;;;;;;;8.43;2.40;;;;;;;;;;4951022;28;20119;-63
2022/09/13 01:28:56;;;;;;;11.27;2.47;;;;;;;;;;4948643;28;20066;-63
2022/09/13 01:32:08;;;;;;;13.35;2.25;;;;;;;;;;4951898;28;20048;-64
2022/09/13 01:34:39;;;;;;;10.20;2.63;;;;;;;;;;4966552;28;20069;-65
2022/09/13 01:37:37;;;;;;;9.95;2.55;;;;;;;;;;4963224;28;20058;-66
2022/09/13 01:40:35;;;;;;;11.27;2.58;;;;;;;;;;4959084;28;20055;-65
2022/09/13 01:43:24;;;;;;;9.15;2.45;;;;;;;;;;4955236;28;20082;-66
2022/09/13 01:45:58;;;;;;;5.32;1.98;;;;;;;;;;4966935;28;20528;-68
2022/09/13 01:48:44;;;;;;;5.82;2.22;;;;;;;;;;4968115;28;20054;-63
2022/09/13 01:51:40;;;;;;;9.20;2.10;;;;;;;;;;4949669;28;20044;-66
2022/09/13 01:54:24;;;;;;;5.82;1.90;;;;;;;;;;4963391;28;20415;-65
2022/09/13 01:57:08;;;;;;;7.72;1.95;;;;;;;;;;4967576;28;20053;-64
2022/09/13 01:59:48;;;;;;;8.65;2.33;;;;;;;;;;4968461;28;20050;-64
2022/09/13 02:02:17;;;;;;;9.98;2.65;;;;;;;;;;4966757;28;20047;-65
2022/09/13 02:04:48;;;;;;;7.65;2.22;;;;;;;;;;4962006;28;20062;-62
2022/09/13 02:07:29;;;;;;;10.48;2.70;;;;;;;;;;4949574;28;20040;-65
2022/09/13 02:10:01;;;;;;;7.93;2.28;;;;;;;;;;4952033;28;20078;-67
2022/09/13 02:12:31;;;;;;;4.25;2.10;;;;;;;;;;4949315;28;20442;-63
2022/09/13 02:15:02;;;;;;;11.32;2.50;;;;;;;;;;4950281;28;20157;-63
2022/09/13 02:17:34;;;;;;;5.60;2.22;;;;;;;;;;4947582;28;20126;-63
2022/09/13 02:20:27;;;;;;;10.40;2.40;;;;;;;;;;4943207;28;20520;-66
2022/09/13 02:23:00;;;;;;;4.95;1.98;;;;;;;;;;4951152;28;20134;-64
2022/09/13 02:25:29;;;;;;;8.80;2.72;;;;;;;;;;4948231;28;20122;-68
2022/09/13 02:28:01;;;;;;;6.80;2.22;;;;;;;;;;4948458;28;20077;-67
2022/09/13 02:30:30;;;;;;;7.32;2.40;;;;;;;;;;4945111;28;20062;-64
2022/09/13 02:33:22;;;;;;;8.55;2.20;;;;;;;;;;4943703;28;20419;-68
2022/09/13 02:35:58;;;;;;;5.82;1.80;;;;;;;;;;4946636;28;20479;-64
2022/09/13 02:38:54;;;;;;;6.88;2.00;;;;;;;;;;4942221;28;20371;-65
2022/09/13 02:41:26;;;;;;;7.95;2.10;;;;;;;;;;4948694;28;20053;-69
2022/09/13 02:44:18;;;;;;;14.80;2.60;;;;;;;;;;4949688;28;20480;-63
2022/09/13 02:47:05;;;;;;;7.18;2.22;;;;;;;;;;4945029;28;20051;-63
2022/09/13 02:49:37;;;;;;;6.03;1.83;;;;;;;;;;4949900;28;20587;-65
2022/09/13 02:52:20;;;;;;;9.30;2.42;;;;;;;;;;4948301;28;20082;-70
2022/09/13 02:54:55;;;;;;;7.90;2.25;;;;;;;;;;4949433;28;20050;-64
2022/09/13 02:57:41;;;;;;;10.48;2.70;;;;;;;;;;4944121;28;20054;-62
2022/09/13 03:00:08;;;;;;;7.40;2.10;;;;;;;;;;4946176;28;20692;-67
2022/09/13 03:02:37;;;;;;;7.55;2.30;;;;;;;;;;4945162;28;20039;-65
2022/09/13 03:05:03;;;;;;;9.65;2.58;;;;;;;;;;4944825;28;20058;-66
2022/09/13 03:07:29;;;;;;;8.00;2.22;;;;;;;;;;4956344;28;20196;-63
2022/09/13 03:10:08;;;;;;;9.30;2.03;;;;;;;;;;4952282;28;20055;-63
2022/09/13 03:13:03;;;;;;;8.90;2.65;;;;;;;;;;4950929;28;20050;-65
2022/09/13 03:15:32;;;;;;;5.65;1.95;;;;;;;;;;4948689;28;20063;-65
2022/09/13 03:18:04;;;;;;;11.63;2.88;;;;;;;;;;4944589;28;20047;-65
2022/09/13 03:20:50;;;;;;;10.95;2.30;;;;;;;;;;4950246;28;20577;-68
2022/09/13 03:23:45;;;;;;;6.40;2.08;;;;;;;;;;4951832;28;20050;-66
2022/09/13 03:27:04;;;;;;;10.27;2.28;;;;;;;;;;4941473;28;20046;-64
2022/09/13 03:29:55;;;;;;;8.02;2.35;;;;;;;;;;4908664;29;20503;-63
2022/09/13 03:32:35;;;;;;;9.90;2.50;;;;;;;;;;4909749;29;20064;-64
2022/09/13 03:35:07;;;;;;;7.93;2.40;;;;;;;;;;4908399;29;20130;-64
2022/09/13 03:37:52;;;;;;;12.90;2.53;;;;;;;;;;4910200;29;20044;-63
2022/09/13 03:40:34;;;;;;;8.38;2.50;;;;;;;;;;4910638;29;20044;-63
2022/09/13 03:43:08;;;;;;;15.55;2.40;;;;;;;;;;4909614;29;20549;-68
2022/09/13 03:45:39;;;;;;;7.25;2.05;;;;;;;;;;4910474;29;20204;-66
2022/09/13 03:48:06;;;;;;;10.75;2.30;;;;;;;;;;4900361;29;20048;-67
2022/09/13 03:50:32;;;;;;;8.65;2.15;;;;;;;;;;4908226;29;20103;-65
2022/09/13 03:53:03;;;;;;;8.10;2.22;;;;;;;;;;4908658;29;20461;-64
2022/09/13 03:55:32;;;;;;;7.90;2.30;;;;;;;;;;4911125;29;20437;-67
2022/09/13 03:57:57;;;;;;;8.30;2.30;;;;;;;;;;4910525;29;20056;-65
2022/09/13 04:00:24;;;;;;;5.28;2.05;;;;;;;;;;4909386;29;20533;-71
2022/09/13 04:02:49;;;;;;;7.05;2.42;;;;;;;;;;4939240;28;20468;-68
2022/09/13 04:05:15;;;;;;;9.93;2.42;;;;;;;;;;4945738;28;20109;-67
2022/09/13 04:07:41;;;;;;;7.43;2.10;;;;;;;;;;4953566;28;20058;-64
2022/09/13 04:10:08;;;;;;;6.47;1.90;;;;;;;;;;4978457;28;20048;-65
2022/09/13 04:12:34;;;;;;;5.70;2.10;;;;;;;;;;4945859;28;20047;-66
2022/09/13 04:15:00;;;;;;;8.38;2.15;;;;;;;;;;4947055;28;20082;-64
2022/09/13 04:17:26;;;;;;;8.68;2.00;;;;;;;;;;4949146;28;20669;-67
2022/09/13 04:19:52;;;;;;;9.05;2.58;;;;;;;;;;4948706;28;20047;-64
2022/09/13 04:22:18;;;;;;;7.07;2.35;;;;;;;;;;4941375;28;20397;-65
2022/09/13 04:24:44;;;;;;;7.25;1.80;;;;;;;;;;4947157;28;20047;-64
2022/09/13 04:27:11;;;;;;;4.60;2.00;;;;;;;;;;4948198;28;20098;-67
2022/09/13 04:29:37;;;;;;;5.90;2.10;;;;;;;;;;4979047;28;20054;-63
2022/09/13 04:32:03;;;;;;;6.97;2.00;;;;;;;;;;4948610;28;20043;-68
2022/09/13 04:34:29;;;;;;;8.13;2.25;;;;;;;;;;4948992;28;20034;-64
2022/09/13 04:36:55;;;;;;;5.38;2.15;;;;;;;;;;4949335;28;20503;-65
2022/09/13 04:39:22;;;;;;;8.63;2.10;;;;;;;;;;4948220;28;20130;-65
2022/09/13 04:41:48;;;;;;;8.40;2.00;;;;;;;;;;4949636;28;20515;-63
2022/09/13 04:44:16;;;;;;;7.88;2.50;;;;;;;;;;4947893;28;20078;-68
2022/09/13 04:46:42;;;;;;;5.55;2.10;;;;;;;;;;4941894;28;20043;-65
2022/09/13 04:49:12;;;;;;;6.28;2.25;;;;;;;;;;4943079;28;20113;-67
2022/09/13 04:51:38;;;;;;;6.78;2.10;;;;;;;;;;4943358;28;20052;-64
2022/09/13 04:54:04;;;;;;;10.45;2.40;;;;;;;;;;4943234;28;20527;-63
2022/09/13 04:56:30;;;;;;;6.85;2.38;;;;;;;;;;4938610;28;20066;-67
2022/09/13 04:58:56;;;;;;;8.27;2.33;;;;;;;;;;4943650;28;20051;-64
2022/09/13 05:01:23;;;;;;;12.57;2.53;;;;;;;;;;4941074;28;20109;-68
2022/09/13 05:03:52;;;;;;;14.52;3.75;;;;;;;;;;4944860;28;20079;-66
2022/09/13 05:06:18;;;;;;;9.40;2.33;;;;;;;;;;4930643;28;20561;-64
2022/09/13 05:08:50;;;;;;;10.05;2.97;;;;;;;;;;4944873;28;20402;-67
2022/09/13 05:11:16;;;;;;;6.93;2.10;;;;;;;;;;4939923;28;20055;-67
2022/09/13 05:13:42;;;;;;;7.40;2.58;;;;;;;;;;4937302;28;20059;-68
2022/09/13 05:16:08;;;;;;;6.50;2.35;;;;;;;;;;4941107;28;20050;-67
2022/09/13 05:18:35;;;;;;;9.60;2.70;;;;;;;;;;4944689;28;20124;-65
2022/09/13 05:21:03;;;;;;;6.47;2.20;;;;;;;;;;4947041;28;20484;-65
2022/09/13 05:23:30;;;;;;;8.43;2.75;;;;;;;;;;4944351;28;20055;-65
2022/09/13 05:26:01;;;;;;;18.05;2.92;;;;;;;;;;4939211;28;20063;-64
2022/09/13 05:28:29;;;;;;;12.60;2.90;;;;;;;;;;4944707;28;20126;-63
2022/09/13 05:31:01;;;;;;;9.15;2.63;;;;;;;;;;4945363;28;20571;-64
2022/09/13 05:33:31;;;;;;;7.93;2.78;;;;;;;;;;4946837;28;20078;-65
2022/09/13 05:35:58;;;;;;;9.80;2.60;;;;;;;;;;4941695;28;20047;-64
2022/09/13 05:38:23;;;;;;;8.73;2.20;;;;;;;;;;4943732;28;20056;-65
2022/09/13 05:40:57;;;;;;;11.88;2.70;;;;;;;;;;4946639;28;20799;-68
2022/09/13 05:43:26;;;;;;;10.80;2.70;;;;;;;;;;4939536;28;20142;-64
2022/09/13 05:46:11;;;;;;;9.40;2.72;;;;;;;;;;4940793;28;20055;-68
2022/09/13 05:48:38;;;;;;;18.55;2.97;;;;;;;;;;4944920;28;20509;-69
2022/09/13 05:51:10;;;;;;;18.77;3.78;;;;;;;;;;4944370;28;20359;-64
2022/09/13 05:53:40;;;;;;;9.15;3.10;;;;;;;;;;4946629;28;20148;-65
2022/09/13 05:56:08;;;;;;;12.20;2.85;;;;;;;;;;4940112;28;20413;-67
2022/09/13 05:58:38;;;;;;;10.93;2.88;;;;;;;;;;4941904;28;20420;-64
2022/09/13 06:01:05;;;;;;;11.00;2.70;;;;;;;;;;4945575;28;20506;-64
2022/09/13 06:03:31;;;;;;;13.70;4.00;;;;;;;;;;4941495;28;20051;-64
2022/09/13 06:05:57;;;;;;;11.80;3.00;;;;;;;;;;4939187;28;20587;-68
2022/09/13 06:08:25;;;;;;;8.13;2.70;;;;;;;;;;4940788;28;20505;-66
2022/09/13 06:10:56;;;;;;;6.90;2.55;;;;;;;;;;4944926;28;20095;-64
2022/09/13 06:13:22;;;;;;;11.98;3.03;;;;;;;;;;4945321;28;20047;-68
2022/09/13 06:15:48;;;;;;;11.48;3.05;;;;;;;;;;4941812;28;20062;-65
2022/09/13 06:18:14;;;;;;;8.80;2.83;;;;;;;;;;4947923;28;20051;-68
2022/09/13 06:20:40;;;;;;;10.75;2.75;;;;;;;;;;4955013;28;20877;-65
2022/09/13 06:23:06;;;;;;;12.35;3.25;;;;;;;;;;4950046;28;20067;-69
2022/09/13 06:25:32;;;;;;;17.17;3.10;;;;;;;;;;4954018;28;20107;-66
2022/09/13 06:27:58;;;;;;;12.68;3.20;;;;;;;;;;4942136;28;20579;-68
2022/09/13 06:30:23;;;;;;;13.23;3.30;;;;;;;;;;4951164;28;20063;-62
2022/09/13 06:32:49;;;;;;;9.57;3.05;;;;;;;;;;4946634;28;20043;-67
2022/09/13 06:35:15;;;;;;;8.20;3.15;;;;;;;;;;4948910;28;20089;-66
2022/09/13 06:37:41;;;;;;;9.75;3.22;;;;;;;;;;4949999;28;20047;-65
2022/09/13 06:40:08;;;;;;;13.90;3.00;;;;;;;;;;4948820;28;20118;-69
2022/09/13 06:42:35;;;;;;;12.68;3.33;;;;;;;;;;4944198;28;20054;-71
2022/09/13 06:45:00;;;;;;;15.02;3.50;;;;;;;;;;4946789;28;20047;-69
2022/09/13 06:47:27;;;;;;;12.05;3.70;;;;;;;;;;4946658;28;20054;-71
2022/09/13 06:49:53;;;;;;;9.10;3.38;;;;;;;;;;4951417;28;20154;-63
2022/09/13 06:52:18;;;;;;;16.67;3.20;;;;;;;;;;4947600;28;20166;-67
2022/09/13 06:54:44;;;;;;;10.18;3.08;;;;;;;;;;4953254;28;20078;-65
2022/09/13 06:57:10;;;;;;;11.15;4.28;;;;;;;;;;4951908;28;20051;-65
2022/09/13 06:59:36;;;;;;;10.88;2.85;;;;;;;;;;4953106;28;20051;-63
2022/09/13 07:02:02;;;;;;;8.52;3.00;;;;;;;;;;4951068;28;20102;-65
2022/09/13 07:04:31;;;;;;;5.93;2.90;;;;;;;;;;4949062;28;20043;-68
2022/09/13 07:06:58;;;;;;;8.25;2.85;;;;;;;;;;4956160;28;20077;-70
2022/09/13 07:09:25;;;;;;;11.65;3.15;;;;;;;;;;4956528;28;20051;-70
2022/09/13 07:11:53;;;;;;;11.38;3.13;;;;;;;;;;4949865;28;20517;-65
2022/09/13 07:14:24;;;;;;;13.10;3.72;;;;;;;;;;4952255;28;20055;-61
2022/09/13 07:16:51;;;;;;;13.35;3.17;;;;;;;;;;4954818;28;20090;-63
2022/09/13 07:19:21;;;;;;;9.38;3.33;;;;;;;;;;4950545;28;20066;-62
2022/09/13 07:21:48;;;;;;;13.20;3.30;;;;;;;;;;4946645;28;20070;-67
2022/09/13 07:24:16;;;;;;;13.43;3.22;;;;;;;;;;4950323;28;20051;-69
2022/09/13 07:26:41;;;;;;;9.27;3.00;;;;;;;;;;4952529;28;20051;-63
2022/09/13 07:29:11;;;;;;;12.18;3.35;;;;;;;;;;4961910;28;20083;-64
2022/09/13 07:31:39;;;;;;;13.75;3.22;;;;;;;;;;4949093;28;20437;-61
2022/09/13 07:34:10;;;;;;;9.40;3.53;;;;;;;;;;4944746;28;20106;-68
2022/09/13 07:36:36;;;;;;;11.73;4.10;;;;;;;;;;4950086;28;20134;-64
2022/09/13 07:39:04;;;;;;;10.45;3.55;;;;;;;;;;4946977;28;20074;-68
2022/09/13 07:41:31;;;;;;;16.05;4.45;;;;;;;;;;4949900;28;20043;-63
2022/09/13 07:43:59;;;;;;;23.08;5.40;;;;;;;;;;4948467;28;20556;-67
2022/09/13 07:46:27;;;;;;;19.08;6.07;;;;;;;;;;4948587;28;20130;-65
2022/09/13 07:48:55;;;;;;;18.60;5.75;;;;;;;;;;4942956;28;20082;-66
2022/09/13 07:51:24;;;;;;;19.77;6.03;;;;;;;;;;4939250;28;20138;-64
2022/09/13 07:53:53;;;;;;;22.42;6.07;;;;;;;;;;4948318;28;20464;-63
2022/09/13 07:56:21;;;;;;;18.95;5.55;;;;;;;;;;4958224;28;20050;-68
2022/09/13 07:58:49;;;;;;;13.93;4.43;;;;;;;;;;4947637;28;20083;-61
2022/09/13 08:01:18;;;;;;;20.95;5.10;;;;;;;;;;4947170;28;20043;-64
2022/09/13 08:03:49;;;;;;;21.88;5.57;;;;;;;;;;4945059;28;20058;-67
2022/09/13 08:06:15;;;;;;;12.73;4.32;;;;;;;;;;4947256;28;20507;-64
2022/09/13 08:08:41;;;;;;;12.05;4.22;;;;;;;;;;4948613;28;20063;-63
2022/09/13 08:11:07;;;;;;;15.45;4.72;;;;;;;;;;4948503;28;20484;-70
2022/09/13 08:13:33;;;;;;;9.13;4.05;;;;;;;;;;4951417;28;20172;-63
2022/09/13 08:16:05;;;;;;;13.18;4.40;;;;;;;;;;4949760;28;20398;-62
2022/09/13 08:18:32;;;;;;;11.65;4.20;;;;;;;;;;4944474;28;20046;-67
2022/09/13 08:20:59;;;;;;;14.05;4.35;;;;;;;;;;4946898;28;20106;-70
2022/09/13 08:23:26;;;;;;;12.45;4.20;;;;;;;;;;4946343;28;20059;-67
2022/09/13 08:25:52;;;;;;;16.60;4.50;;;;;;;;;;4946645;28;20051;-69
2022/09/13 08:28:22;;;;;;;17.67;4.25;;;;;;;;;;4944688;28;20369;-69
2022/09/13 08:30:48;;;;;;;14.90;4.43;;;;;;;;;;4947062;28;20131;-68
2022/09/13 08:33:14;;;;;;;13.63;4.30;;;;;;;;;;4947777;28;20074;-71
2022/09/13 08:35:40;;;;;;;17.00;4.20;;;;;;;;;;4947577;28;20083;-70
2022/09/13 08:38:06;;;;;;;14.38;3.78;;;;;;;;;;4948835;28;20043;-72
2022/09/13 08:40:47;;;;;;;20.58;4.32;;;;;;;;;;4980693;28;20051;-66
2022/09/13 08:43:24;;;;;;;8.80;3.30;;;;;;;;;;4950447;28;20126;-68
2022/09/13 08:45:53;;;;;;;14.20;3.53;;;;;;;;;;4980007;28;20063;-68
2022/09/13 08:48:28;;;;;;;20.30;3.25;;;;;;;;;;4964049;28;20453;-68
2022/09/13 08:51:01;;;;;;;13.45;2.83;;;;;;;;;;4951799;28;20043;-67
2022/09/13 08:53:29;;;;;;;12.95;3.28;;;;;;;;;;4953048;28;20044;-67
2022/09/13 08:56:05;;;;;;;13.95;2.90;;;;;;;;;;4953895;28;20462;-69
2022/09/13 08:59:23;;;;;;;12.85;3.03;;;;;;;;;;4953408;28;20051;-69
2022/09/13 09:02:10;;;;;;;15.10;2.50;;;;;;;;;;4931728;29;20501;-70
2022/09/13 09:04:40;;;;;;;18.80;3.10;;;;;;;;;;4930599;29;20056;-68
2022/09/13 09:07:32;;;;;;;11.40;3.20;;;;;;;;;;4930015;29;20497;-69
2022/09/13 09:10:16;;;;;;;14.30;2.97;;;;;;;;;;4930885;29;20497;-69
2022/09/13 09:12:49;;;;;;;11.98;2.60;;;;;;;;;;4928324;29;20446;-66
2022/09/13 09:15:31;;;;;;;12.70;2.37;;;;;;;;;;4931486;29;20132;-68
2022/09/13 09:18:04;;;;;;;15.02;2.80;;;;;;;;;;4932157;29;20501;-65
2022/09/13 09:20:37;;;;;;;9.67;2.20;;;;;;;;;;4930570;29;20109;-69
2022/09/13 09:23:11;;;;;;;16.55;2.80;;;;;;;;;;4930390;29;20054;-67
2022/09/13 09:25:38;;;;;;;15.68;2.63;;;;;;;;;;4931024;29;20585;-70
2022/09/13 09:28:15;;;;;;;10.13;2.83;;;;;;;;;;4931117;29;20077;-72
2022/09/13 09:31:06;;;;;;;17.58;2.58;;;;;;;;;;4930128;29;20055;-68
2022/09/13 09:33:44;;;;;;;11.52;3.05;;;;;;;;;;4930452;29;20047;-70
2022/09/13 09:36:20;;;;;;;14.15;2.30;;;;;;;;;;4946927;28;20059;-66
2022/09/13 09:38:47;;;;;;;14.32;2.67;;;;;;;;;;4951806;28;20043;-66
2022/09/13 09:41:34;;;;;;;9.50;2.80;;;;;;;;;;4951802;28;20066;-68
2022/09/13 09:44:02;;;;;;;9.70;2.17;;;;;;;;;;4950830;28;20182;-66
2022/09/13 09:46:33;;;;;;;17.38;2.80;;;;;;;;;;4952278;28;20043;-72
2022/09/13 09:52:05;;;;;;;10.43;2.20;;;;;;;;;;4952536;28;20509;-66
2022/09/13 09:54:34;;;;;;;11.35;2.45;;;;;;;;;;4952912;28;20047;-66
2022/09/13 09:57:00;;;;;;;14.82;2.60;;;;;;;;;;4953878;28;20155;-70
2022/09/13 09:59:30;;;;;;;13.38;2.70;;;;;;;;;;4951688;28;20461;-66
2022/09/13 10:01:56;;;;;;;12.82;2.65;;;;;;;;;;4951337;28;20054;-68
2022/09/13 10:04:24;;;;;;;13.73;2.78;;;;;;;;;;4967733;28;20055;-68
2022/09/13 10:07:26;;;;;;;15.00;2.83;;;;;;;;;;4957046;28;20047;-71
2022/09/13 10:10:19;;;;;;;20.10;3.00;;;;;;;;;;4958506;28;20055;-67
2022/09/13 10:12:49;;;;;;;11.60;2.72;;;;;;;;;;4953017;28;20047;-69
2022/09/13 10:15:18;;;;;;;12.77;2.45;;;;;;;;;;4951830;28;20083;-68
2022/09/13 10:18:02;;;;;;;16.52;3.10;;;;;;;;;;4951783;28;20409;-69
2022/09/13 10:20:30;;;;;;;17.63;3.55;;;;;;;;;;4951179;28;20253;-69
2022/09/13 10:23:20;;;;;;;21.63;3.63;;;;;;;;;;4950674;28;20444;-67
2022/09/13 10:26:01;;;;;;;13.15;2.83;;;;;;;;;;4947825;28;20437;-68
2022/09/13 10:28:29;;;;;;;13.65;3.05;;;;;;;;;;4951035;28;20055;-69
2022/09/13 10:31:00;;;;;;;19.73;3.72;;;;;;;;;;4950787;28;20806;-68
2022/09/13 10:33:32;;;;;;;20.38;4.68;;;;;;;;;;4950651;28;20058;-68
2022/09/13 10:36:04;;;;;;;17.77;4.30;;;;;;;;;;4950089;28;20651;-67
2022/09/13 10:38:39;;;;;;;14.63;3.75;;;;;;;;;;4950178;28;20039;-71
2022/09/13 10:41:09;;;;;;;9.75;3.15;;;;;;;;;;4950437;28;20043;-68
2022/09/13 10:43:35;;;;;;;12.18;3.17;;;;;;;;;;4950573;28;20051;-66
2022/09/13 10:46:04;;;;;;;13.00;2.72;;;;;;;;;;4951188;28;20204;-69
2022/09/13 10:48:42;;;;;;;16.08;3.33;;;;;;;;;;4965249;28;20449;-70
2022/09/13 10:51:26;;;;;;;17.48;3.20;;;;;;;;;;4949169;28;20138;-72
2022/09/13 10:54:24;;;;;;;14.20;3.67;;;;;;;;;;4951395;28;20406;-67
2022/09/13 10:56:52;;;;;;;17.77;3.92;;;;;;;;;;4938551;28;20501;-67
2022/09/13 10:59:27;;;;;;;12.10;3.20;;;;;;;;;;4950858;28;20079;-70
2022/09/13 11:01:59;;;;;;;18.70;3.58;;;;;;;;;;4952785;28;20085;-66
2022/09/13 11:04:31;;;;;;;14.02;3.30;;;;;;;;;;4951218;28;20055;-68
2022/09/13 11:07:26;;;;;;;12.85;3.25;;;;;;;;;;4953765;28;20066;-71
2022/09/13 11:10:09;;;;;;;15.00;3.42;;;;;;;;;;4955297;28;20055;-67
2022/09/13 11:12:52;;;;;;;14.38;5.95;;;;;;;;;;4950164;28;20043;-66
2022/09/13 11:15:46;;;;;;;11.60;3.47;;;;;;;;;;4956551;28;20063;-70
2022/09/13 11:18:33;;;;;;;10.63;2.83;;;;;;;;;;4961009;28;20445;-69
2022/09/13 11:21:23;;;;;;;17.52;3.70;;;;;;;;;;4950781;28;20051;-67
2022/09/13 11:23:55;;;;;;;11.27;3.60;;;;;;;;;;4949496;28;20707;-67
2022/09/13 11:26:47;;;;;;;23.23;3.88;;;;;;;;;;4950745;28;20129;-66
2022/09/13 11:29:36;;;;;;;18.38;3.83;;;;;;;;;;4963983;28;20093;-68
2022/09/13 11:32:41;;;;;;;16.98;4.07;;;;;;;;;;4949505;28;20516;-69
2022/09/13 11:35:35;;;;;;;17.63;3.55;;;;;;;;;;4927866;29;20092;-64
2022/09/13 11:38:14;;;;;;;24.45;4.15;;;;;;;;;;4928445;29;20055;-68
2022/09/13 11:40:58;;;;;;;13.70;3.45;;;;;;;;;;4928535;29;20111;-68
2022/09/13 11:43:43;;;;;;;20.92;3.65;;;;;;;;;;4928141;29;20056;-66
2022/09/13 11:46:28;;;;;;;13.25;3.28;;;;;;;;;;4927156;29;20067;-66
2022/09/13 11:49:21;;;;;;;17.83;3.30;;;;;;;;;;4928525;29;20620;-72
2022/09/13 11:52:09;;;;;;;16.48;3.17;;;;;;;;;;4928294;29;20072;-68
2022/09/13 11:54:59;;;;;;;16.30;3.55;;;;;;;;;;4928562;29;20056;-67
2022/09/13 11:57:39;;;;;;;15.50;3.30;;;;;;;;;;4921364;29;20587;-67
2022/09/13 12:00:13;;;;;;;13.98;3.35;;;;;;;;;;4916102;29;20051;-67
2022/09/13 12:02:42;;;;;;;;;;;;;;;;;;4927652;29;20139;-67
2022/09/13 12:05:15;;;;;;;14.68;3.40;;;;;;;;;;4927419;29;19922;-69
2022/09/13 12:07:48;;;;;;;16.88;4.50;;;;;;;;;;4927150;29;20149;-66
2022/09/13 12:10:28;;;;;;;20.17;4.07;;;;;;;;;;4935406;28;20514;-69
2022/09/13 12:12:56;;;;;;;19.25;4.50;;;;;;;;;;4948190;28;20071;-66
2022/09/13 12:15:36;;;;;;;17.42;3.75;;;;;;;;;;4948659;28;20464;-67
2022/09/13 12:18:37;;;;;;;15.98;4.25;;;;;;;;;;4949922;28;20055;-66
2022/09/13 12:21:09;;;;;;;13.23;3.72;;;;;;;;;;4937403;28;20059;-68
2022/09/13 12:24:11;;;;;;;25.20;4.07;;;;;;;;;;4949032;28;20489;-68
2022/09/13 12:26:45;;;;;;;21.13;4.03;;;;;;;;;;4942898;28;20170;-66
2022/09/13 12:30:01;;;;;;;14.68;3.40;;;;;;;;;;4953565;28;20035;-66
2022/09/13 12:32:28;;;;;;;13.35;3.50;;;;;;;;;;4913220;29;20056;-65
2022/09/13 12:35:00;;;;;;;12.23;3.17;;;;;;;;;;4912923;29;20075;-68
2022/09/13 12:37:52;;;;;;;20.33;3.38;;;;;;;;;;4911453;29;20561;-66
2022/09/13 12:40:27;;;;;;;15.52;3.67;;;;;;;;;;4911550;29;20498;-69
2022/09/13 12:43:02;;;;;;;14.32;4.38;;;;;;;;;;4912382;29;20044;-69
2022/09/13 12:45:53;;;;;;;17.00;3.67;;;;;;;;;;4912539;29;20056;-66
2022/09/13 12:48:24;;;;;;;17.60;4.45;;;;;;;;;;4912147;29;20083;-68
2022/09/13 12:51:11;;;;;;;15.40;3.63;;;;;;;;;;4912523;29;20064;-72
2022/09/13 12:54:25;;;;;;;12.95;2.88;;;;;;;;;;4912495;29;20051;-69
2022/09/13 12:56:59;;;;;;;12.50;3.38;;;;;;;;;;4912829;29;20083;-70
2022/09/13 12:59:58;;;;;;;17.27;3.85;;;;;;;;;;4912605;29;20134;-69
2022/09/13 13:02:35;;;;;;;14.70;3.70;;;;;;;;;;4918688;29;20471;-68
2022/09/13 13:05:26;;;;;;;12.98;3.50;;;;;;;;;;4940339;28;20055;-68
2022/09/13 13:07:57;;;;;;;12.38;2.58;;;;;;;;;;4967664;28;20057;-68
2022/09/13 13:10:37;;;;;;;14.27;3.00;;;;;;;;;;4952944;28;20044;-67
2022/09/13 13:13:28;;;;;;;17.48;3.25;;;;;;;;;;4949058;28;20082;-68
2022/09/13 13:15:58;;;;;;;13.23;3.17;;;;;;;;;;4953607;28;20065;-75
2022/09/13 13:18:48;;;;;;;12.82;3.55;;;;;;;;;;4952910;28;20047;-67
2022/09/13 13:21:30;;;;;;;14.18;3.03;;;;;;;;;;4952659;28;20067;-72
2022/09/13 13:24:14;;;;;;;11.98;2.80;;;;;;;;;;4952968;28;20127;-69
2022/09/13 13:26:53;;;;;;;11.85;2.90;;;;;;;;;;4953911;28;20058;-69
2022/09/13 13:29:32;;;;;;;18.25;3.15;;;;;;;;;;4954857;28;20558;-71
2022/09/13 13:32:02;;;;;;;12.80;3.28;;;;;;;;;;4953719;28;20039;-71
2022/09/13 13:34:42;;;;;;;21.00;3.42;;;;;;;;;;4954721;28;20044;-69
2022/09/13 13:37:08;;;;;;;10.02;2.90;;;;;;;;;;4953546;28;20242;-71
2022/09/13 13:39:45;;;;;;;15.02;3.13;;;;;;;;;;4953736;28;20043;-69
2022/09/13 13:42:24;;;;;;;13.65;3.13;;;;;;;;;;4953365;28;20054;-67
2022/09/13 13:45:05;;;;;;;19.02;3.63;;;;;;;;;;4951508;28;20061;-68
2022/09/13 13:47:31;;;;;;;18.60;3.10;;;;;;;;;;4951629;28;20048;-69
2022/09/13 13:50:17;;;;;;;11.73;3.03;;;;;;;;;;4952028;28;20055;-69
2022/09/13 13:52:45;;;;;;;10.90;2.47;;;;;;;;;;4953370;28;20043;-71
2022/09/13 13:55:27;;;;;;;15.85;2.70;;;;;;;;;;4961784;28;20061;-68
2022/09/13 13:58:09;;;;;;;16.33;3.08;;;;;;;;;;4951285;28;20043;-68
2022/09/13 14:00:44;;;;;;;17.58;3.20;;;;;;;;;;4951225;28;20059;-67
2022/09/13 14:03:17;;;;;;;17.40;2.97;;;;;;;;;;4951354;28;20078;-71
2022/09/13 14:05:55;;;;;;;12.03;2.80;;;;;;;;;;4951378;28;20065;-68
2022/09/13 14:08:41;;;;;;;13.43;3.20;;;;;;;;;;4959153;28;20154;-69
2022/09/13 14:11:38;;;;;;;15.88;3.40;;;;;;;;;;4951920;28;20079;-71
2022/09/13 14:14:22;;;;;;;14.38;3.15;;;;;;;;;;4951266;28;20490;-73
2022/09/13 14:16:51;;;;;;;11.07;2.90;;;;;;;;;;4950933;28;20059;-70
2022/09/13 14:19:23;;;;;;;16.70;3.60;;;;;;;;;;4958784;28;20087;-73
2022/09/13 14:22:19;;;;;;;14.35;3.10;;;;;;;;;;4956645;28;20051;-67
2022/09/13 14:24:53;;;;;;;15.68;3.13;;;;;;;;;;4950670;28;20066;-68
2022/09/13 14:27:23;;;;;;;16.17;3.10;;;;;;;;;;4951669;28;20101;-67
2022/09/13 14:29:52;;;;;;;19.70;3.10;;;;;;;;;;4951598;28;20067;-69
2022/09/13 14:32:23;;;;;;;10.45;2.50;;;;;;;;;;4951178;28;20047;-70
2022/09/13 14:34:53;;;;;;;15.60;3.47;;;;;;;;;;4945131;28;20099;-68
2022/09/13 14:37:23;;;;;;;10.98;2.80;;;;;;;;;;4950559;28;20051;-67
2022/09/13 14:40:17;;;;;;;12.75;2.60;;;;;;;;;;4950718;28;20457;-67
2022/09/13 14:42:46;;;;;;;16.38;3.03;;;;;;;;;;4943600;28;20052;-70
2022/09/13 14:45:19;;;;;;;21.13;3.38;;;;;;;;;;4951040;28;20040;-67
2022/09/13 14:48:06;;;;;;;13.20;2.50;;;;;;;;;;4949715;28;20717;-69
2022/09/13 14:50:36;;;;;;;17.92;3.03;;;;;;;;;;4950798;28;20054;-73
2022/09/13 14:53:26;;;;;;;16.05;2.70;;;;;;;;;;4960526;28;20080;-68
2022/09/13 14:55:58;;;;;;;10.55;2.30;;;;;;;;;;4949317;28;20051;-70
2022/09/13 14:58:30;;;;;;;17.38;2.67;;;;;;;;;;4978099;28;20043;-70
2022/09/13 15:01:04;;;;;;;20.08;2.95;;;;;;;;;;4954754;28;20174;-74
2022/09/13 15:03:31;;;;;;;44.40;4.13;;;;;;;;;;4941862;28;20537;-67
2022/09/13 15:06:03;;;;;;;18.58;3.08;;;;;;;;;;4950056;28;20058;-65
2022/09/13 15:08:32;;;;;;;23.42;2.85;;;;;;;;;;4950711;28;20062;-71
2022/09/13 15:11:00;;;;;;;12.75;2.92;;;;;;;;;;4950780;28;20078;-66
2022/09/13 15:13:26;;;;;;;11.30;2.40;;;;;;;;;;4949648;28;20077;-69
2022/09/13 15:15:53;;;;;;;14.77;3.22;;;;;;;;;;4950212;28;20055;-67
2022/09/13 15:18:19;;;;;;;12.40;2.80;;;;;;;;;;4949562;28;20275;-69